sensor_id;sensor_type;location;lat;lon;timestamp;P1;durP1;ratioP1;P2;durP2;ratioP2
37164;SDS011;23057;48.554;14.454;2023-12-14T00:00:49;7.00;;;4.45;;
37164;SDS011;23057;48.554;14.454;2023-12-14T00:03:20;7.03;;;4.47;;
37164;SDS011;23057;48.554;14.454;2023-12-14T00:05:51;6.07;;;4.03;;
37164;SDS011;23057;48.554;14.454;2023-12-14T00:08:22;7.57;;;4.47;;
37164;SDS011;23057;48.554;14.454;2023-12-14T00:10:52;7.50;;;4.63;;
37164;SDS011;23057;48.554;14.454;2023-12-14T00:13:23;7.50;;;3.92;;
37164;SDS011;23057;48.554;14.454;2023-12-14T00:15:54;8.75;;;5.15;;
37164;SDS011;23057;48.554;14.454;2023-12-14T00:18:25;8.07;;;5.47;;
37164;SDS011;23057;48.554;14.454;2023-12-14T00:20:55;10.23;;;6.35;;
37164;SDS011;23057;48.554;14.454;2023-12-14T00:23:26;9.48;;;5.90;;
37164;SDS011;23057;48.554;14.454;2023-12-14T00:25:57;8.52;;;5.35;;
37164;SDS011;23057;48.554;14.454;2023-12-14T00:28:28;7.38;;;5.10;;
37164;SDS011;23057;48.554;14.454;2023-12-14T00:30:59;8.65;;;5.20;;
37164;SDS011;23057;48.554;14.454;2023-12-14T00:33:29;9.30;;;4.82;;
37164;SDS011;23057;48.554;14.454;2023-12-14T00:36:01;9.40;;;5.63;;
37164;SDS011;23057;48.554;14.454;2023-12-14T00:38:32;9.90;;;5.45;;
37164;SDS011;23057;48.554;14.454;2023-12-14T00:41:03;10.95;;;5.45;;
37164;SDS011;23057;48.554;14.454;2023-12-14T00:43:34;6.90;;;4.72;;
37164;SDS011;23057;48.554;14.454;2023-12-14T00:46:04;6.75;;;4.78;;
37164;SDS011;23057;48.554;14.454;2023-12-14T00:48:35;9.38;;;5.57;;
37164;SDS011;23057;48.554;14.454;2023-12-14T00:51:06;8.40;;;4.78;;
37164;SDS011;23057;48.554;14.454;2023-12-14T00:53:37;9.77;;;5.38;;
37164;SDS011;23057;48.554;14.454;2023-12-14T00:56:08;10.90;;;6.70;;
37164;SDS011;23057;48.554;14.454;2023-12-14T00:58:39;8.48;;;5.10;;
37164;SDS011;23057;48.554;14.454;2023-12-14T01:01:10;7.55;;;4.63;;
37164;SDS011;23057;48.554;14.454;2023-12-14T01:03:41;10.45;;;5.35;;
37164;SDS011;23057;48.554;14.454;2023-12-14T01:06:11;12.77;;;4.30;;
37164;SDS011;23057;48.554;14.454;2023-12-14T01:08:42;7.22;;;4.40;;
37164;SDS011;23057;48.554;14.454;2023-12-14T01:11:13;7.35;;;4.03;;
37164;SDS011;23057;48.554;14.454;2023-12-14T01:13:44;6.13;;;4.13;;
37164;SDS011;23057;48.554;14.454;2023-12-14T01:16:15;8.50;;;5.28;;
37164;SDS011;23057;48.554;14.454;2023-12-14T01:18:46;7.63;;;5.00;;
37164;SDS011;23057;48.554;14.454;2023-12-14T01:21:16;9.65;;;5.20;;
37164;SDS011;23057;48.554;14.454;2023-12-14T01:23:47;9.02;;;5.20;;
37164;SDS011;23057;48.554;14.454;2023-12-14T01:26:19;9.50;;;4.93;;
37164;SDS011;23057;48.554;14.454;2023-12-14T01:28:49;5.95;;;3.97;;
37164;SDS011;23057;48.554;14.454;2023-12-14T01:31:20;5.75;;;3.92;;
37164;SDS011;23057;48.554;14.454;2023-12-14T01:33:54;6.70;;;4.28;;
37164;SDS011;23057;48.554;14.454;2023-12-14T01:36:25;10.90;;;5.53;;
37164;SDS011;23057;48.554;14.454;2023-12-14T01:38:56;9.65;;;5.25;;
37164;SDS011;23057;48.554;14.454;2023-12-14T01:41:27;8.27;;;4.95;;
37164;SDS011;23057;48.554;14.454;2023-12-14T01:43:58;6.25;;;4.43;;
37164;SDS011;23057;48.554;14.454;2023-12-14T01:46:30;8.38;;;4.50;;
37164;SDS011;23057;48.554;14.454;2023-12-14T01:49:01;7.22;;;4.40;;
37164;SDS011;23057;48.554;14.454;2023-12-14T01:51:31;8.40;;;4.75;;
37164;SDS011;23057;48.554;14.454;2023-12-14T01:54:03;10.52;;;5.22;;
37164;SDS011;23057;48.554;14.454;2023-12-14T01:56:34;9.05;;;5.07;;
37164;SDS011;23057;48.554;14.454;2023-12-14T01:59:05;8.40;;;5.07;;
37164;SDS011;23057;48.554;14.454;2023-12-14T02:01:41;9.45;;;5.28;;
37164;SDS011;23057;48.554;14.454;2023-12-14T02:04:15;9.48;;;5.88;;
37164;SDS011;23057;48.554;14.454;2023-12-14T02:06:46;12.88;;;6.43;;
37164;SDS011;23057;48.554;14.454;2023-12-14T02:09:17;13.07;;;6.13;;
37164;SDS011;23057;48.554;14.454;2023-12-14T02:11:47;9.95;;;5.45;;
37164;SDS011;23057;48.554;14.454;2023-12-14T02:14:21;8.90;;;5.72;;
37164;SDS011;23057;48.554;14.454;2023-12-14T02:16:53;7.28;;;4.45;;
37164;SDS011;23057;48.554;14.454;2023-12-14T02:19:23;12.32;;;5.47;;
37164;SDS011;23057;48.554;14.454;2023-12-14T02:21:54;8.48;;;5.15;;
37164;SDS011;23057;48.554;14.454;2023-12-14T02:24:25;10.25;;;5.70;;
37164;SDS011;23057;48.554;14.454;2023-12-14T02:26:56;9.30;;;5.10;;
37164;SDS011;23057;48.554;14.454;2023-12-14T02:29:27;9.80;;;5.30;;
37164;SDS011;23057;48.554;14.454;2023-12-14T02:31:58;10.40;;;5.90;;
37164;SDS011;23057;48.554;14.454;2023-12-14T02:34:29;8.15;;;5.68;;
37164;SDS011;23057;48.554;14.454;2023-12-14T02:37:00;8.05;;;4.95;;
37164;SDS011;23057;48.554;14.454;2023-12-14T02:39:31;7.97;;;4.43;;
37164;SDS011;23057;48.554;14.454;2023-12-14T02:42:01;8.23;;;4.45;;
37164;SDS011;23057;48.554;14.454;2023-12-14T02:44:32;6.40;;;4.03;;
37164;SDS011;23057;48.554;14.454;2023-12-14T02:47:03;5.65;;;3.60;;
37164;SDS011;23057;48.554;14.454;2023-12-14T02:49:34;12.77;;;6.20;;
37164;SDS011;23057;48.554;14.454;2023-12-14T02:52:05;36.50;;;8.13;;
37164;SDS011;23057;48.554;14.454;2023-12-14T02:54:36;62.13;;;8.82;;
37164;SDS011;23057;48.554;14.454;2023-12-14T02:57:09;42.42;;;7.18;;
37164;SDS011;23057;48.554;14.454;2023-12-14T02:59:40;24.08;;;10.05;;
37164;SDS011;23057;48.554;14.454;2023-12-14T03:02:11;23.23;;;10.85;;
37164;SDS011;23057;48.554;14.454;2023-12-14T03:04:42;25.95;;;11.93;;
37164;SDS011;23057;48.554;14.454;2023-12-14T03:07:13;12.43;;;6.78;;
37164;SDS011;23057;48.554;14.454;2023-12-14T03:09:44;14.50;;;7.70;;
37164;SDS011;23057;48.554;14.454;2023-12-14T03:12:14;12.20;;;6.28;;
37164;SDS011;23057;48.554;14.454;2023-12-14T03:14:45;11.73;;;6.00;;
37164;SDS011;23057;48.554;14.454;2023-12-14T03:17:16;12.27;;;5.40;;
37164;SDS011;23057;48.554;14.454;2023-12-14T03:19:47;10.43;;;6.03;;
37164;SDS011;23057;48.554;14.454;2023-12-14T03:22:18;9.07;;;5.47;;
37164;SDS011;23057;48.554;14.454;2023-12-14T03:24:49;12.32;;;5.90;;
37164;SDS011;23057;48.554;14.454;2023-12-14T03:27:19;9.35;;;4.97;;
37164;SDS011;23057;48.554;14.454;2023-12-14T03:29:52;9.05;;;4.25;;
37164;SDS011;23057;48.554;14.454;2023-12-14T03:32:23;4.20;;;2.60;;
37164;SDS011;23057;48.554;14.454;2023-12-14T03:34:54;5.57;;;3.65;;
37164;SDS011;23057;48.554;14.454;2023-12-14T03:37:25;9.10;;;4.80;;
37164;SDS011;23057;48.554;14.454;2023-12-14T03:39:56;11.85;;;5.57;;
37164;SDS011;23057;48.554;14.454;2023-12-14T03:42:26;14.98;;;5.63;;
37164;SDS011;23057;48.554;14.454;2023-12-14T03:44:57;8.07;;;5.25;;
37164;SDS011;23057;48.554;14.454;2023-12-14T03:47:28;8.02;;;4.47;;
37164;SDS011;23057;48.554;14.454;2023-12-14T03:49:59;10.98;;;5.03;;
37164;SDS011;23057;48.554;14.454;2023-12-14T03:52:30;11.15;;;5.57;;
37164;SDS011;23057;48.554;14.454;2023-12-14T03:55:01;10.63;;;4.72;;
37164;SDS011;23057;48.554;14.454;2023-12-14T03:57:32;7.78;;;4.57;;
37164;SDS011;23057;48.554;14.454;2023-12-14T04:00:03;7.75;;;5.05;;
37164;SDS011;23057;48.554;14.454;2023-12-14T04:02:35;7.82;;;4.63;;
37164;SDS011;23057;48.554;14.454;2023-12-14T04:05:06;11.27;;;5.38;;
37164;SDS011;23057;48.554;14.454;2023-12-14T04:07:39;4.68;;;3.00;;
37164;SDS011;23057;48.554;14.454;2023-12-14T04:10:12;4.03;;;2.85;;
37164;SDS011;23057;48.554;14.454;2023-12-14T04:12:43;3.53;;;2.58;;
37164;SDS011;23057;48.554;14.454;2023-12-14T04:15:14;3.78;;;2.95;;
37164;SDS011;23057;48.554;14.454;2023-12-14T04:17:45;3.47;;;2.40;;
37164;SDS011;23057;48.554;14.454;2023-12-14T04:20:16;5.10;;;2.95;;
37164;SDS011;23057;48.554;14.454;2023-12-14T04:22:47;5.85;;;3.38;;
37164;SDS011;23057;48.554;14.454;2023-12-14T04:25:18;4.78;;;3.13;;
37164;SDS011;23057;48.554;14.454;2023-12-14T04:27:49;3.88;;;2.65;;
37164;SDS011;23057;48.554;14.454;2023-12-14T04:30:21;6.70;;;2.90;;
37164;SDS011;23057;48.554;14.454;2023-12-14T04:32:52;4.75;;;3.08;;
37164;SDS011;23057;48.554;14.454;2023-12-14T04:35:23;15.57;;;3.17;;
37164;SDS011;23057;48.554;14.454;2023-12-14T04:37:54;7.22;;;3.72;;
37164;SDS011;23057;48.554;14.454;2023-12-14T04:40:25;3.92;;;2.38;;
37164;SDS011;23057;48.554;14.454;2023-12-14T04:42:55;4.20;;;2.42;;
37164;SDS011;23057;48.554;14.454;2023-12-14T04:45:26;5.15;;;2.97;;
37164;SDS011;23057;48.554;14.454;2023-12-14T04:47:57;5.03;;;3.67;;
37164;SDS011;23057;48.554;14.454;2023-12-14T04:50:28;6.60;;;4.55;;
37164;SDS011;23057;48.554;14.454;2023-12-14T04:52:59;9.77;;;5.95;;
37164;SDS011;23057;48.554;14.454;2023-12-14T04:55:29;4.47;;;3.20;;
37164;SDS011;23057;48.554;14.454;2023-12-14T04:58:00;5.38;;;2.85;;
37164;SDS011;23057;48.554;14.454;2023-12-14T05:00:31;3.72;;;2.63;;
37164;SDS011;23057;48.554;14.454;2023-12-14T05:03:02;4.05;;;2.75;;
37164;SDS011;23057;48.554;14.454;2023-12-14T05:05:33;2.97;;;2.13;;
37164;SDS011;23057;48.554;14.454;2023-12-14T05:08:04;3.35;;;2.20;;
37164;SDS011;23057;48.554;14.454;2023-12-14T05:10:35;3.25;;;2.10;;
37164;SDS011;23057;48.554;14.454;2023-12-14T05:13:05;3.40;;;2.10;;
37164;SDS011;23057;48.554;14.454;2023-12-14T05:15:36;2.47;;;2.00;;
37164;SDS011;23057;48.554;14.454;2023-12-14T05:18:07;2.90;;;2.35;;
37164;SDS011;23057;48.554;14.454;2023-12-14T05:20:38;3.22;;;2.50;;
37164;SDS011;23057;48.554;14.454;2023-12-14T05:23:09;3.13;;;2.28;;
37164;SDS011;23057;48.554;14.454;2023-12-14T05:25:40;3.58;;;2.60;;
37164;SDS011;23057;48.554;14.454;2023-12-14T05:28:11;3.20;;;2.25;;
37164;SDS011;23057;48.554;14.454;2023-12-14T05:30:41;6.63;;;2.60;;
37164;SDS011;23057;48.554;14.454;2023-12-14T05:33:12;3.30;;;2.38;;
37164;SDS011;23057;48.554;14.454;2023-12-14T05:35:44;3.88;;;2.60;;
37164;SDS011;23057;48.554;14.454;2023-12-14T05:38:14;3.40;;;2.25;;
37164;SDS011;23057;48.554;14.454;2023-12-14T05:40:45;3.42;;;2.08;;
37164;SDS011;23057;48.554;14.454;2023-12-14T05:43:16;5.65;;;2.03;;
37164;SDS011;23057;48.554;14.454;2023-12-14T05:45:47;21.30;;;2.70;;
37164;SDS011;23057;48.554;14.454;2023-12-14T05:48:17;24.42;;;3.58;;
37164;SDS011;23057;48.554;14.454;2023-12-14T05:50:48;32.92;;;2.35;;
37164;SDS011;23057;48.554;14.454;2023-12-14T05:53:21;24.98;;;2.45;;
37164;SDS011;23057;48.554;14.454;2023-12-14T05:55:52;41.80;;;3.08;;
37164;SDS011;23057;48.554;14.454;2023-12-14T05:58:23;42.00;;;2.85;;
37164;SDS011;23057;48.554;14.454;2023-12-14T06:00:54;33.08;;;2.30;;
37164;SDS011;23057;48.554;14.454;2023-12-14T06:03:26;14.57;;;2.22;;
37164;SDS011;23057;48.554;14.454;2023-12-14T06:05:57;10.85;;;2.58;;
37164;SDS011;23057;48.554;14.454;2023-12-14T06:08:28;10.20;;;2.30;;
37164;SDS011;23057;48.554;14.454;2023-12-14T06:10:59;3.20;;;2.28;;
37164;SDS011;23057;48.554;14.454;2023-12-14T06:13:29;2.67;;;2.20;;
37164;SDS011;23057;48.554;14.454;2023-12-14T06:16:00;3.05;;;2.10;;
37164;SDS011;23057;48.554;14.454;2023-12-14T06:18:32;2.83;;;2.00;;
37164;SDS011;23057;48.554;14.454;2023-12-14T06:21:03;2.67;;;2.25;;
37164;SDS011;23057;48.554;14.454;2023-12-14T06:23:35;4.10;;;2.15;;
37164;SDS011;23057;48.554;14.454;2023-12-14T06:26:06;2.45;;;2.17;;
37164;SDS011;23057;48.554;14.454;2023-12-14T06:28:37;2.60;;;1.80;;
37164;SDS011;23057;48.554;14.454;2023-12-14T06:31:14;4.65;;;1.48;;
37164;SDS011;23057;48.554;14.454;2023-12-14T06:33:48;2.97;;;1.67;;
37164;SDS011;23057;48.554;14.454;2023-12-14T06:36:19;2.40;;;1.52;;
37164;SDS011;23057;48.554;14.454;2023-12-14T06:38:50;2.55;;;1.90;;
37164;SDS011;23057;48.554;14.454;2023-12-14T06:41:21;15.55;;;5.32;;
37164;SDS011;23057;48.554;14.454;2023-12-14T06:43:53;15.95;;;3.22;;
37164;SDS011;23057;48.554;14.454;2023-12-14T06:46:25;12.95;;;4.88;;
37164;SDS011;23057;48.554;14.454;2023-12-14T06:48:56;13.52;;;6.10;;
37164;SDS011;23057;48.554;14.454;2023-12-14T06:51:27;10.65;;;4.45;;
37164;SDS011;23057;48.554;14.454;2023-12-14T06:53:57;15.10;;;7.03;;
37164;SDS011;23057;48.554;14.454;2023-12-14T06:56:28;5.45;;;3.50;;
37164;SDS011;23057;48.554;14.454;2023-12-14T06:58:59;11.18;;;7.35;;
37164;SDS011;23057;48.554;14.454;2023-12-14T07:01:30;6.22;;;4.72;;
37164;SDS011;23057;48.554;14.454;2023-12-14T07:04:00;7.05;;;6.13;;
37164;SDS011;23057;48.554;14.454;2023-12-14T07:06:33;4.18;;;3.17;;
37164;SDS011;23057;48.554;14.454;2023-12-14T07:09:05;3.67;;;2.75;;
37164;SDS011;23057;48.554;14.454;2023-12-14T07:11:35;5.35;;;2.58;;
37164;SDS011;23057;48.554;14.454;2023-12-14T07:14:06;5.43;;;3.05;;
37164;SDS011;23057;48.554;14.454;2023-12-14T07:16:37;2.67;;;2.28;;
37164;SDS011;23057;48.554;14.454;2023-12-14T07:19:08;4.03;;;2.40;;
37164;SDS011;23057;48.554;14.454;2023-12-14T07:21:40;4.57;;;2.83;;
37164;SDS011;23057;48.554;14.454;2023-12-14T07:24:11;3.72;;;2.40;;
37164;SDS011;23057;48.554;14.454;2023-12-14T07:26:42;4.85;;;3.03;;
37164;SDS011;23057;48.554;14.454;2023-12-14T07:29:13;3.67;;;2.85;;
37164;SDS011;23057;48.554;14.454;2023-12-14T07:31:44;4.18;;;2.50;;
37164;SDS011;23057;48.554;14.454;2023-12-14T07:34:15;3.75;;;2.42;;
37164;SDS011;23057;48.554;14.454;2023-12-14T07:36:46;4.47;;;2.60;;
37164;SDS011;23057;48.554;14.454;2023-12-14T07:39:17;4.00;;;2.42;;
37164;SDS011;23057;48.554;14.454;2023-12-14T07:41:47;3.45;;;2.50;;
37164;SDS011;23057;48.554;14.454;2023-12-14T07:44:18;5.97;;;2.75;;
37164;SDS011;23057;48.554;14.454;2023-12-14T07:46:50;3.45;;;2.30;;
37164;SDS011;23057;48.554;14.454;2023-12-14T07:49:21;6.03;;;2.90;;
37164;SDS011;23057;48.554;14.454;2023-12-14T07:51:53;3.97;;;2.58;;
37164;SDS011;23057;48.554;14.454;2023-12-14T07:54:24;8.57;;;4.15;;
37164;SDS011;23057;48.554;14.454;2023-12-14T07:56:56;6.70;;;4.95;;
37164;SDS011;23057;48.554;14.454;2023-12-14T07:59:27;8.15;;;4.15;;
37164;SDS011;23057;48.554;14.454;2023-12-14T08:01:59;4.97;;;3.60;;
37164;SDS011;23057;48.554;14.454;2023-12-14T08:04:30;5.85;;;3.50;;
37164;SDS011;23057;48.554;14.454;2023-12-14T08:07:03;5.05;;;3.70;;
37164;SDS011;23057;48.554;14.454;2023-12-14T08:09:34;4.82;;;3.33;;
37164;SDS011;23057;48.554;14.454;2023-12-14T08:12:05;5.68;;;3.30;;
37164;SDS011;23057;48.554;14.454;2023-12-14T08:14:36;7.63;;;3.63;;
37164;SDS011;23057;48.554;14.454;2023-12-14T08:17:08;4.85;;;3.60;;
37164;SDS011;23057;48.554;14.454;2023-12-14T08:19:40;4.80;;;2.85;;
37164;SDS011;23057;48.554;14.454;2023-12-14T08:22:12;5.90;;;3.20;;
37164;SDS011;23057;48.554;14.454;2023-12-14T08:24:45;3.60;;;2.63;;
37164;SDS011;23057;48.554;14.454;2023-12-14T08:27:16;3.78;;;2.60;;
37164;SDS011;23057;48.554;14.454;2023-12-14T08:29:46;3.70;;;2.58;;
37164;SDS011;23057;48.554;14.454;2023-12-14T08:32:17;4.22;;;2.60;;
37164;SDS011;23057;48.554;14.454;2023-12-14T08:34:48;4.22;;;2.58;;
37164;SDS011;23057;48.554;14.454;2023-12-14T08:37:19;4.55;;;2.90;;
37164;SDS011;23057;48.554;14.454;2023-12-14T08:39:50;4.72;;;2.40;;
37164;SDS011;23057;48.554;14.454;2023-12-14T08:42:21;3.45;;;2.78;;
37164;SDS011;23057;48.554;14.454;2023-12-14T08:44:52;4.68;;;3.35;;
37164;SDS011;23057;48.554;14.454;2023-12-14T08:47:23;5.10;;;3.10;;
37164;SDS011;23057;48.554;14.454;2023-12-14T08:49:54;4.55;;;3.22;;
37164;SDS011;23057;48.554;14.454;2023-12-14T08:52:25;4.05;;;3.53;;
37164;SDS011;23057;48.554;14.454;2023-12-14T08:54:57;5.15;;;3.67;;
37164;SDS011;23057;48.554;14.454;2023-12-14T08:57:28;5.30;;;4.15;;
37164;SDS011;23057;48.554;14.454;2023-12-14T08:59:59;5.30;;;2.42;;
37164;SDS011;23057;48.554;14.454;2023-12-14T09:02:31;3.78;;;2.67;;
37164;SDS011;23057;48.554;14.454;2023-12-14T09:05:02;3.53;;;2.72;;
37164;SDS011;23057;48.554;14.454;2023-12-14T09:07:34;4.15;;;3.10;;
37164;SDS011;23057;48.554;14.454;2023-12-14T09:10:05;2.95;;;2.75;;
37164;SDS011;23057;48.554;14.454;2023-12-14T09:12:37;2.35;;;2.00;;
37164;SDS011;23057;48.554;14.454;2023-12-14T09:15:08;1.80;;;1.35;;
37164;SDS011;23057;48.554;14.454;2023-12-14T09:17:39;1.90;;;1.70;;
37164;SDS011;23057;48.554;14.454;2023-12-14T09:20:12;1.55;;;1.33;;
37164;SDS011;23057;48.554;14.454;2023-12-14T09:22:43;2.67;;;2.05;;
37164;SDS011;23057;48.554;14.454;2023-12-14T09:25:14;2.40;;;2.20;;
37164;SDS011;23057;48.554;14.454;2023-12-14T09:27:45;4.45;;;2.90;;
37164;SDS011;23057;48.554;14.454;2023-12-14T09:30:16;1.90;;;1.70;;
37164;SDS011;23057;48.554;14.454;2023-12-14T09:32:47;2.00;;;1.60;;
37164;SDS011;23057;48.554;14.454;2023-12-14T09:35:18;1.90;;;1.30;;
37164;SDS011;23057;48.554;14.454;2023-12-14T09:37:49;2.35;;;1.90;;
37164;SDS011;23057;48.554;14.454;2023-12-14T09:40:20;2.30;;;2.10;;
37164;SDS011;23057;48.554;14.454;2023-12-14T09:42:52;1.75;;;1.52;;
37164;SDS011;23057;48.554;14.454;2023-12-14T09:45:27;2.28;;;2.08;;
37164;SDS011;23057;48.554;14.454;2023-12-14T09:48:00;2.10;;;1.50;;
37164;SDS011;23057;48.554;14.454;2023-12-14T09:50:31;2.13;;;1.75;;
37164;SDS011;23057;48.554;14.454;2023-12-14T09:53:04;2.30;;;1.55;;
37164;SDS011;23057;48.554;14.454;2023-12-14T09:55:35;2.72;;;1.60;;
37164;SDS011;23057;48.554;14.454;2023-12-14T09:58:06;2.10;;;1.90;;
37164;SDS011;23057;48.554;14.454;2023-12-14T10:00:40;1.60;;;1.20;;
37164;SDS011;23057;48.554;14.454;2023-12-14T10:03:21;1.50;;;1.20;;
37164;SDS011;23057;48.554;14.454;2023-12-14T10:05:56;2.50;;;1.58;;
37164;SDS011;23057;48.554;14.454;2023-12-14T10:08:30;1.90;;;1.38;;
37164;SDS011;23057;48.554;14.454;2023-12-14T10:11:01;2.00;;;1.50;;
37164;SDS011;23057;48.554;14.454;2023-12-14T10:13:44;1.50;;;1.30;;
37164;SDS011;23057;48.554;14.454;2023-12-14T10:16:31;1.80;;;1.42;;
37164;SDS011;23057;48.554;14.454;2023-12-14T10:19:03;1.35;;;1.08;;
37164;SDS011;23057;48.554;14.454;2023-12-14T10:21:34;2.20;;;1.30;;
37164;SDS011;23057;48.554;14.454;2023-12-14T10:24:06;2.45;;;1.35;;
37164;SDS011;23057;48.554;14.454;2023-12-14T10:26:37;2.22;;;1.02;;
37164;SDS011;23057;48.554;14.454;2023-12-14T10:29:07;1.50;;;0.90;;
37164;SDS011;23057;48.554;14.454;2023-12-14T10:31:39;1.52;;;1.20;;
37164;SDS011;23057;48.554;14.454;2023-12-14T10:34:11;2.10;;;1.30;;
37164;SDS011;23057;48.554;14.454;2023-12-14T10:36:45;1.55;;;1.25;;
37164;SDS011;23057;48.554;14.454;2023-12-14T10:39:18;1.40;;;1.10;;
37164;SDS011;23057;48.554;14.454;2023-12-14T10:41:50;1.05;;;0.90;;
37164;SDS011;23057;48.554;14.454;2023-12-14T10:44:27;1.48;;;1.10;;
37164;SDS011;23057;48.554;14.454;2023-12-14T10:47:03;2.00;;;1.25;;
37164;SDS011;23057;48.554;14.454;2023-12-14T10:49:37;1.63;;;1.00;;
37164;SDS011;23057;48.554;14.454;2023-12-14T10:52:08;1.58;;;1.00;;
37164;SDS011;23057;48.554;14.454;2023-12-14T10:54:40;2.45;;;1.05;;
37164;SDS011;23057;48.554;14.454;2023-12-14T10:57:14;2.03;;;1.30;;
37164;SDS011;23057;48.554;14.454;2023-12-14T10:59:46;2.78;;;1.42;;
37164;SDS011;23057;48.554;14.454;2023-12-14T11:02:19;2.08;;;1.33;;
37164;SDS011;23057;48.554;14.454;2023-12-14T11:05:23;2.28;;;1.30;;
37164;SDS011;23057;48.554;14.454;2023-12-14T11:07:53;1.48;;;1.08;;
37164;SDS011;23057;48.554;14.454;2023-12-14T11:10:37;1.55;;;1.10;;
37164;SDS011;23057;48.554;14.454;2023-12-14T11:13:12;1.85;;;1.20;;
37164;SDS011;23057;48.554;14.454;2023-12-14T11:15:47;1.80;;;1.25;;
37164;SDS011;23057;48.554;14.454;2023-12-14T11:18:22;1.65;;;1.30;;
37164;SDS011;23057;48.554;14.454;2023-12-14T11:20:59;1.50;;;1.10;;
37164;SDS011;23057;48.554;14.454;2023-12-14T11:23:40;1.85;;;1.27;;
37164;SDS011;23057;48.554;14.454;2023-12-14T11:26:15;2.00;;;1.25;;
37164;SDS011;23057;48.554;14.454;2023-12-14T11:28:54;1.20;;;1.10;;
37164;SDS011;23057;48.554;14.454;2023-12-14T11:31:26;1.55;;;1.30;;
37164;SDS011;23057;48.554;14.454;2023-12-14T11:33:59;1.20;;;1.10;;
37164;SDS011;23057;48.554;14.454;2023-12-14T11:36:31;1.30;;;1.10;;
37164;SDS011;23057;48.554;14.454;2023-12-14T11:39:02;0.98;;;0.90;;
37164;SDS011;23057;48.554;14.454;2023-12-14T11:41:35;1.52;;;0.98;;
37164;SDS011;23057;48.554;14.454;2023-12-14T11:44:08;1.00;;;0.90;;
37164;SDS011;23057;48.554;14.454;2023-12-14T11:46:39;1.27;;;1.00;;
37164;SDS011;23057;48.554;14.454;2023-12-14T11:49:12;2.47;;;1.10;;
37164;SDS011;23057;48.554;14.454;2023-12-14T11:51:45;1.50;;;1.17;;
37164;SDS011;23057;48.554;14.454;2023-12-14T11:54:17;1.25;;;1.10;;
37164;SDS011;23057;48.554;14.454;2023-12-14T11:56:48;1.15;;;1.00;;
37164;SDS011;23057;48.554;14.454;2023-12-14T11:59:22;1.92;;;1.50;;
37164;SDS011;23057;48.554;14.454;2023-12-14T12:01:54;2.13;;;1.67;;
37164;SDS011;23057;48.554;14.454;2023-12-14T12:04:29;2.13;;;1.60;;
37164;SDS011;23057;48.554;14.454;2023-12-14T12:12:14;3.25;;;2.75;;
37164;SDS011;23057;48.554;14.454;2023-12-14T12:14:45;2.65;;;2.13;;
37164;SDS011;23057;48.554;14.454;2023-12-14T12:17:16;3.08;;;2.45;;
37164;SDS011;23057;48.554;14.454;2023-12-14T12:19:48;3.25;;;2.60;;
37164;SDS011;23057;48.554;14.454;2023-12-14T12:22:19;3.20;;;2.67;;
37164;SDS011;23057;48.554;14.454;2023-12-14T12:24:50;3.08;;;2.45;;
37164;SDS011;23057;48.554;14.454;2023-12-14T12:27:20;3.42;;;2.78;;
37164;SDS011;23057;48.554;14.454;2023-12-14T12:29:51;3.65;;;2.58;;
37164;SDS011;23057;48.554;14.454;2023-12-14T12:32:24;5.47;;;2.72;;
37164;SDS011;23057;48.554;14.454;2023-12-14T12:34:55;3.00;;;2.42;;
37164;SDS011;23057;48.554;14.454;2023-12-14T12:37:25;3.15;;;2.53;;
37164;SDS011;23057;48.554;14.454;2023-12-14T12:39:57;2.75;;;2.40;;
37164;SDS011;23057;48.554;14.454;2023-12-14T12:42:27;3.53;;;2.75;;
37164;SDS011;23057;48.554;14.454;2023-12-14T12:44:59;3.65;;;2.35;;
37164;SDS011;23057;48.554;14.454;2023-12-14T12:47:30;3.35;;;2.75;;
37164;SDS011;23057;48.554;14.454;2023-12-14T12:50:01;3.15;;;2.33;;
37164;SDS011;23057;48.554;14.454;2023-12-14T12:52:32;2.85;;;2.38;;
37164;SDS011;23057;48.554;14.454;2023-12-14T12:55:05;3.40;;;2.45;;
37164;SDS011;23057;48.554;14.454;2023-12-14T12:57:37;4.45;;;2.83;;
37164;SDS011;23057;48.554;14.454;2023-12-14T13:00:08;4.07;;;2.63;;
37164;SDS011;23057;48.554;14.454;2023-12-14T13:02:41;3.50;;;2.65;;
37164;SDS011;23057;48.554;14.454;2023-12-14T13:05:17;3.53;;;2.75;;
37164;SDS011;23057;48.554;14.454;2023-12-14T13:07:48;3.15;;;2.28;;
37164;SDS011;23057;48.554;14.454;2023-12-14T13:10:19;4.47;;;2.70;;
37164;SDS011;23057;48.554;14.454;2023-12-14T13:12:55;4.45;;;2.90;;
37164;SDS011;23057;48.554;14.454;2023-12-14T13:15:26;3.75;;;2.63;;
37164;SDS011;23057;48.554;14.454;2023-12-14T13:17:59;3.40;;;2.60;;
37164;SDS011;23057;48.554;14.454;2023-12-14T13:20:30;4.20;;;3.35;;
37164;SDS011;23057;48.554;14.454;2023-12-14T13:23:01;3.67;;;2.80;;
37164;SDS011;23057;48.554;14.454;2023-12-14T13:25:32;3.80;;;2.95;;
37164;SDS011;23057;48.554;14.454;2023-12-14T13:28:04;3.80;;;2.45;;
37164;SDS011;23057;48.554;14.454;2023-12-14T13:30:35;3.03;;;2.72;;
37164;SDS011;23057;48.554;14.454;2023-12-14T13:33:07;3.42;;;2.72;;
37164;SDS011;23057;48.554;14.454;2023-12-14T13:35:41;4.00;;;2.45;;
37164;SDS011;23057;48.554;14.454;2023-12-14T13:38:12;4.03;;;2.85;;
37164;SDS011;23057;48.554;14.454;2023-12-14T13:40:44;2.88;;;2.13;;
37164;SDS011;23057;48.554;14.454;2023-12-14T13:43:15;4.18;;;2.78;;
37164;SDS011;23057;48.554;14.454;2023-12-14T13:45:45;2.40;;;2.10;;
37164;SDS011;23057;48.554;14.454;2023-12-14T13:48:17;3.88;;;2.90;;
37164;SDS011;23057;48.554;14.454;2023-12-14T13:50:48;3.58;;;2.10;;
37164;SDS011;23057;48.554;14.454;2023-12-14T13:53:19;3.05;;;2.40;;
37164;SDS011;23057;48.554;14.454;2023-12-14T13:55:50;3.08;;;2.25;;
37164;SDS011;23057;48.554;14.454;2023-12-14T13:58:21;2.35;;;1.90;;
37164;SDS011;23057;48.554;14.454;2023-12-14T14:00:52;2.53;;;2.00;;
37164;SDS011;23057;48.554;14.454;2023-12-14T14:03:22;2.75;;;1.90;;
37164;SDS011;23057;48.554;14.454;2023-12-14T14:05:56;4.05;;;2.08;;
37164;SDS011;23057;48.554;14.454;2023-12-14T14:08:28;2.85;;;1.92;;
37164;SDS011;23057;48.554;14.454;2023-12-14T14:11:01;3.05;;;2.25;;
37164;SDS011;23057;48.554;14.454;2023-12-14T14:13:32;5.28;;;1.83;;
37164;SDS011;23057;48.554;14.454;2023-12-14T14:16:03;2.22;;;1.92;;
37164;SDS011;23057;48.554;14.454;2023-12-14T14:18:37;3.60;;;2.33;;
37164;SDS011;23057;48.554;14.454;2023-12-14T14:21:08;4.57;;;2.10;;
37164;SDS011;23057;48.554;14.454;2023-12-14T14:23:38;4.28;;;2.15;;
37164;SDS011;23057;48.554;14.454;2023-12-14T14:26:09;3.63;;;2.70;;
37164;SDS011;23057;48.554;14.454;2023-12-14T14:28:40;3.58;;;2.78;;
37164;SDS011;23057;48.554;14.454;2023-12-14T14:31:11;3.60;;;2.22;;
37164;SDS011;23057;48.554;14.454;2023-12-14T14:33:42;3.75;;;2.13;;
37164;SDS011;23057;48.554;14.454;2023-12-14T14:36:14;2.53;;;1.90;;
37164;SDS011;23057;48.554;14.454;2023-12-14T14:38:45;3.70;;;2.22;;
37164;SDS011;23057;48.554;14.454;2023-12-14T14:41:16;3.53;;;2.42;;
37164;SDS011;23057;48.554;14.454;2023-12-14T14:43:48;3.75;;;2.10;;
37164;SDS011;23057;48.554;14.454;2023-12-14T14:46:19;3.58;;;2.10;;
37164;SDS011;23057;48.554;14.454;2023-12-14T14:48:50;3.22;;;2.30;;
37164;SDS011;23057;48.554;14.454;2023-12-14T14:51:20;3.63;;;2.80;;
37164;SDS011;23057;48.554;14.454;2023-12-14T14:53:51;5.65;;;3.33;;
37164;SDS011;23057;48.554;14.454;2023-12-14T14:56:22;3.10;;;2.50;;
37164;SDS011;23057;48.554;14.454;2023-12-14T14:58:53;3.42;;;2.33;;
37164;SDS011;23057;48.554;14.454;2023-12-14T15:01:24;4.32;;;2.20;;
37164;SDS011;23057;48.554;14.454;2023-12-14T15:03:54;3.00;;;1.80;;